createdAt,value
2022-10-03T06:25:15.377Z,12.79
2022-10-03T06:28:33.230Z,12.82
2022-10-03T06:31:58.042Z,12.85
2022-10-03T06:35:29.341Z,12.87
2022-10-03T06:38:43.173Z,12.87
2022-10-03T06:42:04.835Z,12.93
2022-10-03T06:44:56.735Z,12.99
2022-10-03T06:47:49.735Z,13.03
2022-10-03T06:50:49.122Z,13.09
2022-10-03T06:53:46.826Z,13.16
2022-10-03T06:57:06.215Z,13.28
2022-10-03T07:00:20.998Z,13.39
2022-10-03T07:03:39.341Z,13.50
2022-10-03T07:06:55.197Z,13.60
2022-10-03T07:10:27.261Z,13.72
2022-10-03T07:14:11.186Z,13.83
2022-10-03T07:17:25.332Z,13.92
2022-10-03T07:20:26.442Z,14.00
2022-10-03T07:23:37.875Z,14.03
2022-10-03T07:26:58.379Z,14.07
2022-10-03T07:30:10.855Z,14.10
2022-10-03T07:33:26.054Z,14.13
2022-10-03T07:36:57.564Z,14.11
2022-10-03T07:40:29.265Z,14.14
2022-10-03T07:44:02.917Z,14.17
2022-10-03T07:47:42.070Z,14.17
2022-10-03T07:51:02.922Z,14.15
2022-10-03T07:54:18.854Z,14.12
2022-10-03T07:57:22.233Z,14.07
2022-10-03T08:00:25.616Z,14.05
2022-10-03T08:03:56.766Z,14.01
2022-10-03T08:06:45.266Z,13.95
2022-10-03T08:09:54.663Z,13.94
2022-10-03T08:13:14.264Z,13.94
2022-10-03T08:16:09.430Z,13.90
2022-10-03T08:19:14.947Z,13.91
2022-10-03T08:22:08.554Z,13.90
2022-10-03T08:25:39.524Z,13.91
2022-10-03T08:28:53.594Z,13.91
2022-10-03T08:32:05.452Z,13.90
2022-10-03T08:35:27.082Z,13.91
2022-10-03T08:38:37.992Z,13.89
2022-10-03T08:42:11.204Z,13.87
2022-10-03T08:45:30.355Z,13.72
2022-10-03T08:48:59.734Z,13.66
2022-10-03T08:52:12.343Z,13.55
2022-10-03T08:55:35.023Z,13.45
2022-10-03T08:58:48.408Z,13.38
2022-10-03T09:01:53.683Z,13.35
2022-10-03T09:05:08.463Z,13.33
2022-10-03T09:09:00.313Z,13.39
2022-10-03T09:12:22.944Z,13.40
2022-10-03T09:15:40.445Z,13.78
2022-10-03T09:18:54.455Z,14.82
2022-10-03T09:22:00.104Z,15.47
2022-10-03T09:25:23.091Z,16.11
2022-10-03T09:28:35.798Z,16.60
2022-10-03T09:31:43.631Z,16.58
2022-10-03T09:35:12.114Z,16.24
2022-10-03T09:38:42.523Z,16.63
2022-10-03T09:42:10.024Z,17.05
2022-10-03T09:45:19.346Z,17.59
2022-10-03T09:48:33.047Z,18.38
2022-10-03T09:51:36.955Z,18.84
2022-10-03T09:55:01.934Z,19.13
2022-10-03T09:58:36.684Z,19.35
2022-10-03T10:01:28.734Z,19.16
2022-10-03T10:04:55.252Z,19.07
2022-10-03T10:08:31.927Z,18.40
2022-10-03T10:11:34.927Z,18.10
2022-10-03T10:14:44.913Z,17.75
2022-10-03T10:18:25.654Z,17.16
2022-10-03T10:21:43.961Z,16.81
2022-10-03T10:25:23.475Z,16.62
2022-10-03T10:29:09.166Z,16.30
2022-10-03T10:32:44.475Z,16.09
2022-10-03T10:36:07.020Z,15.89
2022-10-03T10:39:36.230Z,15.67
2022-10-03T10:43:04.028Z,15.44
2022-10-03T10:46:22.211Z,15.23
2022-10-03T10:50:08.428Z,14.99
2022-10-03T10:53:37.929Z,14.89
2022-10-03T10:57:14.581Z,15.18
2022-10-03T11:00:44.077Z,15.46
2022-10-03T11:04:13.499Z,15.87
2022-10-03T11:07:28.622Z,16.41
2022-10-03T11:10:39.311Z,16.91
2022-10-03T11:14:13.876Z,17.27
2022-10-03T11:17:50.569Z,17.65
2022-10-03T11:21:15.545Z,17.95
2022-10-03T11:24:44.092Z,18.35
2022-10-03T11:28:09.110Z,18.42
2022-10-03T11:31:54.940Z,18.06
2022-10-03T11:35:34.016Z,17.98
2022-10-03T11:38:18.517Z,17.49
2022-10-03T11:41:12.087Z,17.20
2022-10-03T11:44:18.886Z,16.84
2022-10-03T11:47:34.875Z,16.27
2022-10-03T11:50:38.957Z,16.00
2022-10-03T11:53:30.457Z,15.82
2022-10-03T11:56:39.915Z,15.77
2022-10-03T11:59:58.265Z,15.66
2022-10-03T12:03:00.922Z,15.77
2022-10-03T12:05:53.146Z,15.72
2022-10-03T12:08:49.926Z,15.83
2022-10-03T12:11:30.696Z,16.05
2022-10-03T12:14:32.777Z,16.44
2022-10-03T12:17:16.184Z,16.84
2022-10-03T12:20:06.430Z,17.16
2022-10-03T12:22:53.612Z,17.58
2022-10-03T12:25:35.155Z,17.95
2022-10-03T12:28:24.576Z,18.47
2022-10-03T12:31:18.961Z,18.58
2022-10-03T12:34:04.729Z,18.69
2022-10-03T12:36:54.477Z,18.80
2022-10-03T12:39:47.116Z,19.13
2022-10-03T12:42:33.837Z,19.21
2022-10-03T12:45:27.297Z,19.20
2022-10-03T12:48:38.146Z,19.33
2022-10-03T12:51:30.436Z,19.43
2022-10-03T12:54:25.877Z,19.33
2022-10-03T12:57:48.072Z,19.38
2022-10-03T13:00:29.765Z,19.41
2022-10-03T13:03:39.136Z,19.42
2022-10-03T13:07:04.084Z,19.47
2022-10-03T13:10:22.420Z,19.27
2022-10-03T13:13:19.559Z,19.31
2022-10-03T13:16:25.422Z,19.21
2022-10-03T13:19:13.398Z,19.14
2022-10-03T13:22:08.616Z,18.95
2022-10-03T13:24:55.055Z,19.00
2022-10-03T13:27:44.304Z,19.00
2022-10-03T13:30:27.535Z,18.88
2022-10-03T13:33:12.344Z,18.92
2022-10-03T13:36:02.895Z,18.92
2022-10-03T13:39:07.624Z,18.88
2022-10-03T13:42:12.699Z,18.58
2022-10-03T13:44:56.358Z,18.22
2022-10-03T13:47:48.108Z,17.99
2022-10-03T13:50:31.575Z,17.83
2022-10-03T13:53:14.844Z,17.71
2022-10-03T13:55:58.404Z,17.51
2022-10-03T13:58:49.205Z,17.53
2022-10-03T14:01:50.611Z,17.59
2022-10-03T14:05:12.235Z,17.62
2022-10-03T14:08:02.875Z,17.63
2022-10-03T14:11:14.735Z,17.67
2022-10-03T14:14:14.365Z,17.74
2022-10-03T14:17:04.464Z,17.70
2022-10-03T14:20:02.251Z,17.62
2022-10-03T14:22:54.241Z,17.35
2022-10-03T14:25:38.547Z,17.14
2022-10-03T14:28:26.883Z,17.00
2022-10-03T14:31:16.981Z,16.86
2022-10-03T14:34:03.236Z,16.66
2022-10-03T14:36:50.796Z,16.61
2022-10-03T14:39:42.358Z,16.50
2022-10-03T14:43:00.217Z,16.45
2022-10-03T14:45:47.134Z,16.34
2022-10-03T14:48:31.576Z,16.24
2022-10-03T14:51:20.270Z,16.12
2022-10-03T14:54:04.384Z,15.98
2022-10-03T14:56:50.286Z,15.82
2022-10-03T14:59:34.696Z,15.70
2022-10-03T15:02:37.572Z,15.72
2022-10-03T15:05:25.047Z,15.66
2022-10-03T15:08:03.355Z,15.62
2022-10-03T15:10:42.181Z,15.59
2022-10-03T15:13:22.339Z,15.60
2022-10-03T15:16:01.068Z,15.63
2022-10-03T15:18:44.139Z,15.65
2022-10-03T15:21:22.817Z,15.65
2022-10-03T15:24:05.779Z,15.63
2022-10-03T15:26:45.059Z,15.58
2022-10-03T15:29:23.842Z,15.49
2022-10-03T15:32:01.640Z,15.40
2022-10-03T15:34:49.017Z,15.30
2022-10-03T15:37:34.057Z,15.15
2022-10-03T15:40:24.869Z,15.06
2022-10-03T15:43:13.384Z,14.99
2022-10-03T15:45:50.683Z,14.89
2022-10-03T15:48:32.075Z,14.78
2022-10-03T15:51:23.851Z,14.55
2022-10-03T15:54:05.667Z,14.52
2022-10-03T15:56:47.411Z,14.41
2022-10-03T15:59:32.902Z,14.32
2022-10-03T16:02:21.590Z,14.27
2022-10-03T16:05:01.795Z,14.18
2022-10-03T16:07:52.822Z,14.14
2022-10-03T16:10:36.750Z,14.10
2022-10-03T16:13:30.801Z,14.08
2022-10-03T16:16:18.883Z,14.05
2022-10-03T16:19:10.346Z,14.01
2022-10-03T16:21:54.504Z,13.99
2022-10-03T16:24:47.021Z,13.95
2022-10-03T16:27:28.828Z,13.89
2022-10-03T16:30:24.617Z,13.85
2022-10-03T16:33:16.320Z,13.79
2022-10-03T16:35:57.351Z,13.76
2022-10-03T16:38:40.209Z,13.75
2022-10-03T16:41:27.352Z,13.73
2022-10-03T16:44:11.658Z,13.72
2022-10-03T16:46:50.001Z,13.69
2022-10-03T16:49:54.472Z,13.66
2022-10-03T16:52:38.215Z,13.63
2022-10-03T16:55:24.378Z,13.63
2022-10-03T16:58:13.962Z,13.58
2022-10-03T17:01:26.453Z,13.59
2022-10-03T17:04:16.365Z,13.57
2022-10-03T17:06:56.543Z,13.57
2022-10-03T17:09:44.523Z,13.56
2022-10-03T17:12:32.152Z,13.56
2022-10-03T17:15:24.039Z,13.58
2022-10-03T17:18:09.935Z,13.55
2022-10-03T17:20:51.324Z,13.49
2022-10-03T17:23:36.609Z,13.52
2022-10-03T17:26:21.471Z,13.44
2022-10-03T17:29:05.922Z,13.46
2022-10-03T17:31:54.651Z,13.41
2022-10-03T17:34:40.781Z,13.42
2022-10-03T17:37:55.460Z,13.43
2022-10-03T17:40:53.474Z,13.41
2022-10-03T17:43:40.645Z,13.41
